KMCF

Macdill AFB Airport

Tampa, Florida, USA
METAR KMCF 241156Z AUTO 08005KT 10SM CLR 19/18 A3022 RMK AO2 SLP237 T01920182 10211 20171 53003 FZRANO $
Observed Flight Rules
Feb-24 @ 11:56 UTC (28 minutes ago) Visual Flight Rules
Wind Visibility Clouds
80° at 5 knots 10 miles
  • Clear skies
Temperatures Readings
Current 19°C / 66°F
Dewpoint 18°C / 64°F
Humidity 94%
Altimeter 30.22" Hg
Pressure 1023.7 hPa
Elevation 4
METAR KMCF 241156Z AUTO 08005KT 10SM CLR 19/18 A3022 RMK AO2 SLP237 T01920182 10211 20171 53003 FZRANO $
Observed Flight Rules
Feb-24 @ 11:56 UTC
(28 minutes ago)
VFR
Wind Visibility
80° at 5 knots 10 miles
Clouds
  • Clear skies
Temperature Dewpoint
19°C / 66°F 18°C / 64°F
Humidity Altimeter Pressure
94% 30.22" Hg 1023.7 hPa